createdAt,value
2017-09-18T00:00:19.703Z,12.26
2017-09-18T00:02:47.925Z,12.19
2017-09-18T00:05:16.434Z,12.15
2017-09-18T00:07:44.064Z,12.20
2017-09-18T00:10:11.752Z,12.30
2017-09-18T00:12:40.444Z,12.36
2017-09-18T00:15:08.092Z,12.50
2017-09-18T00:17:36.622Z,12.61
2017-09-18T00:20:04.365Z,12.73
2017-09-18T00:22:33.091Z,12.69
2017-09-18T00:25:00.853Z,12.68
2017-09-18T00:27:28.492Z,12.69
2017-09-18T00:29:56.239Z,12.74
2017-09-18T00:32:23.912Z,12.74
2017-09-18T00:34:52.120Z,12.70
2017-09-18T00:37:19.977Z,12.75
2017-09-18T00:39:47.693Z,12.76
2017-09-18T00:42:16.371Z,12.80
2017-09-18T00:44:44.373Z,12.82
2017-09-18T00:47:12.324Z,12.70
2017-09-18T00:49:39.950Z,12.57
2017-09-18T00:52:07.594Z,12.52
2017-09-18T00:54:35.259Z,12.51
2017-09-18T00:57:04.223Z,12.48
2017-09-18T00:59:31.902Z,12.51
2017-09-18T01:01:59.608Z,12.52
2017-09-18T01:04:27.547Z,12.40
2017-09-18T01:06:55.973Z,12.43
2017-09-18T01:09:24.456Z,12.49
2017-09-18T01:11:52.264Z,12.44
2017-09-18T01:14:19.883Z,12.49
2017-09-18T01:16:48.499Z,12.52
2017-09-18T01:19:16.672Z,12.55
2017-09-18T01:21:44.851Z,12.57
2017-09-18T01:24:12.496Z,12.54
2017-09-18T01:26:40.196Z,12.52
2017-09-18T01:29:07.794Z,12.47
2017-09-18T01:31:35.453Z,12.43
2017-09-18T01:34:03.236Z,12.42
2017-09-18T01:36:30.880Z,12.44
2017-09-18T01:38:58.557Z,12.33
2017-09-18T01:41:26.386Z,12.14
2017-09-18T01:43:54.094Z,11.92
2017-09-18T01:46:21.688Z,11.83
2017-09-18T01:48:49.329Z,11.92
2017-09-18T01:51:17.355Z,11.88
2017-09-18T01:53:45.040Z,11.75
2017-09-18T01:56:12.648Z,11.55
2017-09-18T01:58:40.353Z,11.49
2017-09-18T02:01:08.020Z,11.50
2017-09-18T02:03:35.636Z,11.46
2017-09-18T02:06:03.336Z,11.49
2017-09-18T02:08:31.171Z,11.53
2017-09-18T02:10:59.456Z,11.61
2017-09-18T02:13:27.058Z,11.76
2017-09-18T02:15:54.845Z,11.88
2017-09-18T02:18:22.780Z,11.88
2017-09-18T02:20:51.892Z,11.82
2017-09-18T02:23:20.431Z,11.74
2017-09-18T02:25:48.983Z,11.62
2017-09-18T02:28:16.619Z,11.57
2017-09-18T02:30:45.100Z,11.67
2017-09-18T02:33:13.528Z,11.70
2017-09-18T02:35:41.231Z,11.68
2017-09-18T02:38:08.888Z,11.67
2017-09-18T02:40:38.176Z,11.65
2017-09-18T02:43:06.410Z,11.58
2017-09-18T02:45:34.019Z,11.53
2017-09-18T02:48:02.209Z,11.59
2017-09-18T02:50:29.880Z,11.61
2017-09-18T02:52:57.651Z,11.68
2017-09-18T02:55:25.268Z,11.77
2017-09-18T02:57:53.038Z,11.83
2017-09-18T03:00:20.687Z,11.87
2017-09-18T03:02:48.876Z,11.84
2017-09-18T03:05:16.516Z,11.90
2017-09-18T03:07:44.926Z,11.94
2017-09-18T03:10:13.060Z,12.00
2017-09-18T03:12:40.732Z,12.08
2017-09-18T03:15:09.523Z,12.13
2017-09-18T03:17:37.163Z,12.17
2017-09-18T03:20:04.831Z,12.15
2017-09-18T03:22:32.491Z,12.06
2017-09-18T03:25:00.916Z,12.10
2017-09-18T03:27:28.524Z,12.09
2017-09-18T03:29:57.157Z,12.07
2017-09-18T03:32:24.801Z,12.06
2017-09-18T03:34:53.203Z,12.03
2017-09-18T03:37:20.841Z,11.93
2017-09-18T03:39:49.397Z,11.91
2017-09-18T03:42:16.995Z,12.01
2017-09-18T03:44:44.655Z,12.10
2017-09-18T03:47:12.308Z,12.11
2017-09-18T03:49:39.976Z,12.14
2017-09-18T03:52:07.691Z,12.09
2017-09-18T03:54:35.387Z,12.08
2017-09-18T03:57:02.989Z,12.03
2017-09-18T03:59:31.576Z,12.14
2017-09-18T04:02:00.155Z,12.16
2017-09-18T04:04:27.795Z,12.10
2017-09-18T04:06:55.833Z,12.09
2017-09-18T04:09:23.492Z,12.00
2017-09-18T04:11:51.203Z,11.85
2017-09-18T04:14:19.330Z,11.80
2017-09-18T04:16:47.042Z,11.78
2017-09-18T04:19:15.812Z,11.81
2017-09-18T04:21:43.681Z,11.88
2017-09-18T04:24:12.091Z,11.90
2017-09-18T04:26:39.747Z,11.85
2017-09-18T04:29:08.298Z,11.81
2017-09-18T04:31:35.929Z,11.78
2017-09-18T04:34:03.565Z,11.71
2017-09-18T04:36:31.196Z,11.56
2017-09-18T04:38:58.803Z,11.48
2017-09-18T04:41:26.527Z,11.43
2017-09-18T04:43:54.140Z,11.49
2017-09-18T04:46:21.810Z,11.53
2017-09-18T04:48:49.443Z,11.59
2017-09-18T04:51:17.667Z,11.59
2017-09-18T04:53:45.431Z,11.55
2017-09-18T04:56:13.147Z,11.55
2017-09-18T04:58:40.767Z,11.61
2017-09-18T05:01:08.423Z,11.62
2017-09-18T05:03:36.903Z,11.76
2017-09-18T05:06:05.295Z,11.92
2017-09-18T05:08:32.916Z,11.95
2017-09-18T05:11:00.601Z,11.93
2017-09-18T05:13:28.596Z,11.83
2017-09-18T05:15:57.132Z,11.75
2017-09-18T05:18:25.585Z,11.70
2017-09-18T05:20:53.304Z,11.58
2017-09-18T05:23:21.732Z,11.56
2017-09-18T05:25:49.370Z,11.42
2017-09-18T05:28:17.068Z,11.43
2017-09-18T05:30:45.327Z,11.50
2017-09-18T05:33:12.928Z,11.55
2017-09-18T05:35:40.559Z,11.61
2017-09-18T05:38:08.242Z,11.72
2017-09-18T05:40:36.549Z,11.76
2017-09-18T05:43:04.617Z,11.79
2017-09-18T05:45:33.127Z,11.77
2017-09-18T05:48:01.692Z,11.72
2017-09-18T05:50:29.300Z,11.57
2017-09-18T05:52:56.996Z,11.51
2017-09-18T05:55:24.642Z,11.51
2017-09-18T05:57:53.648Z,11.46
2017-09-18T06:00:21.258Z,11.47
2017-09-18T06:02:48.902Z,11.48
2017-09-18T06:05:16.512Z,11.41
2017-09-18T06:07:44.174Z,11.42
2017-09-18T06:10:11.798Z,11.32
2017-09-18T06:12:39.436Z,11.34
2017-09-18T06:15:07.850Z,11.41
2017-09-18T06:17:35.496Z,11.51
2017-09-18T06:20:03.562Z,11.51
2017-09-18T06:22:31.240Z,11.53
2017-09-18T06:24:59.067Z,11.58
2017-09-18T06:27:27.260Z,11.64
2017-09-18T06:29:54.876Z,11.64
2017-09-18T06:32:22.580Z,11.68
2017-09-18T06:34:50.228Z,11.65
2017-09-18T06:37:17.880Z,11.62
2017-09-18T06:39:46.345Z,11.65
2017-09-18T06:42:14.003Z,11.66
2017-09-18T06:44:41.615Z,11.70
2017-09-18T06:47:09.995Z,11.74
2017-09-18T06:49:37.609Z,11.84
2017-09-18T06:52:05.255Z,11.94
2017-09-18T06:54:32.899Z,11.96
2017-09-18T06:57:00.531Z,11.99
2017-09-18T06:59:28.159Z,11.89
2017-09-18T07:01:56.703Z,12.03
2017-09-18T07:04:24.299Z,12.07
2017-09-18T07:06:51.935Z,12.18
2017-09-18T07:09:19.531Z,12.30
2017-09-18T07:11:47.159Z,12.51
2017-09-18T07:14:14.758Z,12.59
2017-09-18T07:16:42.380Z,12.62
2017-09-18T07:19:09.974Z,12.51
2017-09-18T07:21:37.637Z,12.47
2017-09-18T07:24:05.236Z,12.43
2017-09-18T07:26:32.858Z,12.50
2017-09-18T07:29:00.587Z,12.44
2017-09-18T07:31:28.184Z,12.42
2017-09-18T07:33:55.818Z,12.51
2017-09-18T07:36:23.411Z,12.53
2017-09-18T07:38:51.034Z,12.56
2017-09-18T07:41:18.651Z,12.63
2017-09-18T07:43:46.302Z,12.65
2017-09-18T07:46:13.890Z,12.58
2017-09-18T07:48:41.522Z,12.62
2017-09-18T07:51:09.106Z,12.78
2017-09-18T07:53:36.750Z,12.77
2017-09-18T07:56:04.346Z,12.74
2017-09-18T07:58:32.046Z,12.69
2017-09-18T08:00:59.643Z,12.74
2017-09-18T08:03:27.281Z,12.72
2017-09-18T08:05:54.881Z,12.80
2017-09-18T08:08:22.493Z,12.77
2017-09-18T08:10:50.078Z,12.77
2017-09-18T08:13:17.715Z,12.84
2017-09-18T08:15:46.960Z,12.93
2017-09-18T08:18:14.581Z,12.99
2017-09-18T08:20:42.184Z,13.08
2017-09-18T08:23:09.846Z,13.14
2017-09-18T08:25:37.464Z,13.10
2017-09-18T08:28:05.093Z,13.09
2017-09-18T08:30:32.679Z,13.24
2017-09-18T08:33:00.298Z,13.33
2017-09-18T08:35:27.899Z,13.37
2017-09-18T08:37:55.526Z,13.35
2017-09-18T08:40:23.135Z,13.33
2017-09-18T08:42:50.770Z,13.33
2017-09-18T08:45:18.382Z,13.38
2017-09-18T08:47:46.028Z,13.41
2017-09-18T08:50:13.646Z,13.48
2017-09-18T08:52:41.336Z,13.46
2017-09-18T08:55:08.938Z,13.47
2017-09-18T08:57:36.693Z,13.52
2017-09-18T09:00:04.291Z,13.52
2017-09-18T09:02:31.928Z,13.53
2017-09-18T09:04:59.534Z,13.53
2017-09-18T09:07:27.176Z,13.63
2017-09-18T09:09:54.804Z,13.69
2017-09-18T09:12:22.522Z,13.61
2017-09-18T09:14:50.142Z,13.65
2017-09-18T09:17:17.771Z,13.79
2017-09-18T09:19:45.406Z,13.83
2017-09-18T09:22:13.059Z,13.85
2017-09-18T09:24:40.722Z,13.87
2017-09-18T09:27:08.426Z,13.87
2017-09-18T09:29:36.008Z,13.82
2017-09-18T09:32:03.662Z,13.77
2017-09-18T09:34:31.340Z,13.76
2017-09-18T09:36:58.966Z,13.73
2017-09-18T09:39:26.564Z,13.66
2017-09-18T09:41:54.230Z,13.68
2017-09-18T09:44:21.880Z,13.64
2017-09-18T09:46:49.534Z,13.67
2017-09-18T09:49:17.140Z,13.65
2017-09-18T09:51:44.730Z,13.68
2017-09-18T09:54:12.376Z,13.65
2017-09-18T09:56:39.992Z,13.64
2017-09-18T09:59:07.632Z,13.65
2017-09-18T10:01:35.231Z,13.55
2017-09-18T10:04:02.873Z,13.47
2017-09-18T10:06:30.485Z,13.43
2017-09-18T10:08:58.139Z,13.47
2017-09-18T10:11:25.786Z,13.53
2017-09-18T10:13:53.463Z,13.56
2017-09-18T10:16:21.127Z,13.56
2017-09-18T10:18:48.767Z,13.62
2017-09-18T10:21:16.367Z,13.68
2017-09-18T10:23:44.040Z,13.67
2017-09-18T10:26:11.659Z,13.61
2017-09-18T10:28:39.346Z,13.69
2017-09-18T10:31:06.952Z,13.67
2017-09-18T10:33:34.626Z,13.64
2017-09-18T10:36:02.219Z,13.71
2017-09-18T10:38:29.855Z,13.76
2017-09-18T10:40:57.463Z,13.92
2017-09-18T10:43:25.126Z,14.09
2017-09-18T10:45:52.750Z,14.20
2017-09-18T10:48:20.447Z,14.29
2017-09-18T10:50:48.051Z,14.56
2017-09-18T10:53:15.671Z,14.82
2017-09-18T10:55:43.315Z,14.71
2017-09-18T10:58:10.910Z,14.70
2017-09-18T11:00:38.804Z,14.53
2017-09-18T11:03:06.390Z,14.51
2017-09-18T11:05:34.035Z,14.40
2017-09-18T11:08:01.642Z,14.27
2017-09-18T11:10:29.290Z,14.16
2017-09-18T11:12:56.975Z,14.13
2017-09-18T11:15:24.632Z,14.09
2017-09-18T11:17:52.288Z,14.12
2017-09-18T11:20:19.913Z,14.10
2017-09-18T11:22:47.568Z,14.18
2017-09-18T11:25:15.198Z,14.22
2017-09-18T11:27:43.004Z,14.26
2017-09-18T11:30:10.626Z,14.35
2017-09-18T11:32:38.251Z,14.43
2017-09-18T11:35:05.902Z,14.46
2017-09-18T11:37:33.499Z,14.61
2017-09-18T11:40:01.126Z,14.73
2017-09-18T11:42:28.744Z,14.94
2017-09-18T11:44:56.394Z,14.96
2017-09-18T11:47:24.022Z,14.86
2017-09-18T11:49:51.646Z,14.76
2017-09-18T11:52:19.253Z,14.78
2017-09-18T11:54:46.901Z,14.89
2017-09-18T11:57:14.498Z,14.93
2017-09-18T11:59:42.094Z,15.01
2017-09-18T12:02:09.747Z,15.14
2017-09-18T12:04:37.367Z,15.57
2017-09-18T12:07:05.031Z,16.07
2017-09-18T12:09:32.626Z,16.52
2017-09-18T12:12:00.248Z,16.78
2017-09-18T12:14:27.862Z,17.00
2017-09-18T12:16:55.499Z,17.12
2017-09-18T12:19:23.098Z,17.37
2017-09-18T12:21:50.739Z,17.63
2017-09-18T12:24:18.334Z,17.37
2017-09-18T12:26:45.978Z,17.58
2017-09-18T12:29:13.571Z,17.54
2017-09-18T12:31:41.201Z,17.59
2017-09-18T12:34:08.810Z,17.92
2017-09-18T12:36:36.438Z,18.13
2017-09-18T12:39:04.070Z,18.20
2017-09-18T12:41:31.706Z,18.20
2017-09-18T12:43:59.301Z,18.04
2017-09-18T12:46:26.933Z,17.68
2017-09-18T12:48:54.589Z,17.44
2017-09-18T12:51:22.219Z,17.81
2017-09-18T12:53:49.823Z,18.24
2017-09-18T12:56:17.434Z,18.60
2017-09-18T12:58:45.079Z,18.99
2017-09-18T13:01:12.768Z,19.18
2017-09-18T13:03:40.396Z,18.90
2017-09-18T13:06:08.055Z,18.87
2017-09-18T13:08:35.681Z,18.85
2017-09-18T13:11:03.339Z,18.33
2017-09-18T13:13:30.923Z,18.47
2017-09-18T13:15:58.526Z,18.77
2017-09-18T13:18:26.141Z,18.91
2017-09-18T13:20:53.743Z,19.22
2017-09-18T13:23:21.358Z,19.39
2017-09-18T13:25:48.966Z,19.41
2017-09-18T13:28:16.603Z,19.43
2017-09-18T13:30:44.194Z,19.05
2017-09-18T13:33:11.830Z,19.52
2017-09-18T13:35:39.431Z,19.73
2017-09-18T13:38:07.046Z,19.69
2017-09-18T13:40:34.770Z,19.85
2017-09-18T13:43:02.415Z,19.18
2017-09-18T13:45:30.042Z,18.86
2017-09-18T13:47:57.700Z,18.24
2017-09-18T13:50:25.314Z,17.77
2017-09-18T13:52:53.022Z,17.65
2017-09-18T13:55:20.643Z,17.95
2017-09-18T13:57:48.278Z,18.38
2017-09-18T14:00:15.880Z,18.68
2017-09-18T14:02:43.507Z,19.14
2017-09-18T14:05:11.127Z,18.59
2017-09-18T14:07:38.863Z,18.04
2017-09-18T14:10:06.476Z,17.66
2017-09-18T14:12:34.098Z,17.41
2017-09-18T14:15:01.753Z,17.38
2017-09-18T14:17:29.415Z,17.33
2017-09-18T14:19:57.019Z,17.45
2017-09-18T14:22:24.648Z,17.31
2017-09-18T14:24:52.296Z,17.24
2017-09-18T14:27:19.910Z,17.20
2017-09-18T14:29:47.555Z,17.16
2017-09-18T14:32:15.146Z,17.08
2017-09-18T14:34:42.786Z,16.84
2017-09-18T14:37:10.457Z,16.75
2017-09-18T14:39:38.106Z,16.65
2017-09-18T14:42:05.691Z,16.69
2017-09-18T14:44:33.347Z,16.67
2017-09-18T14:47:00.948Z,16.69
2017-09-18T14:49:28.627Z,16.59
2017-09-18T14:51:56.238Z,16.68
2017-09-18T14:54:23.955Z,16.74
2017-09-18T14:56:51.571Z,16.66
2017-09-18T14:59:19.218Z,16.62
2017-09-18T15:01:46.818Z,16.58
2017-09-18T15:04:14.447Z,16.48
2017-09-18T15:06:42.064Z,16.45
2017-09-18T15:09:09.726Z,16.49
2017-09-18T15:11:37.360Z,16.46
2017-09-18T15:14:04.998Z,16.40
2017-09-18T15:16:32.625Z,16.38
2017-09-18T15:19:00.259Z,16.26
2017-09-18T15:21:27.896Z,16.24
2017-09-18T15:23:55.492Z,16.18
2017-09-18T15:26:23.167Z,16.17
2017-09-18T15:28:50.941Z,16.09
2017-09-18T15:31:18.587Z,16.00
2017-09-18T15:33:46.206Z,15.95
2017-09-18T15:36:13.882Z,15.70
2017-09-18T15:38:41.609Z,15.41
2017-09-18T15:41:09.252Z,15.16
2017-09-18T15:43:36.852Z,15.06
2017-09-18T15:46:04.608Z,14.89
2017-09-18T15:48:32.259Z,14.82
2017-09-18T15:50:59.898Z,14.86
2017-09-18T15:53:27.498Z,14.80
2017-09-18T15:55:55.145Z,14.74
2017-09-18T15:58:22.754Z,14.68
2017-09-18T16:00:50.438Z,14.66
2017-09-18T16:03:18.237Z,14.58
2017-09-18T16:05:45.903Z,14.47
2017-09-18T16:08:13.542Z,14.35
2017-09-18T16:10:41.142Z,14.32
2017-09-18T16:13:08.786Z,14.24
2017-09-18T16:15:36.394Z,14.12
2017-09-18T16:18:04.054Z,14.09
2017-09-18T16:20:32.632Z,13.93
2017-09-18T16:23:01.954Z,13.95
2017-09-18T16:25:29.720Z,14.00
2017-09-18T16:27:57.627Z,13.93
2017-09-18T16:30:26.618Z,13.86
2017-09-18T16:32:54.455Z,13.87
2017-09-18T16:35:22.324Z,13.96
2017-09-18T16:37:50.468Z,13.93
2017-09-18T16:40:18.152Z,13.97
2017-09-18T16:42:46.525Z,13.87
2017-09-18T16:45:14.289Z,13.70
2017-09-18T16:47:42.477Z,13.57
2017-09-18T16:50:10.652Z,13.60
2017-09-18T16:52:39.176Z,13.65
2017-09-18T16:55:07.031Z,13.69
2017-09-18T16:57:34.829Z,13.73
2017-09-18T17:00:03.383Z,13.68
2017-09-18T17:02:31.071Z,13.58
2017-09-18T17:04:58.727Z,13.66
2017-09-18T17:07:27.229Z,13.56
2017-09-18T17:09:55.749Z,13.64
2017-09-18T17:12:23.564Z,13.79
2017-09-18T17:14:51.644Z,13.91
2017-09-18T17:17:19.369Z,13.75
2017-09-18T17:19:47.209Z,13.64
2017-09-18T17:22:15.175Z,13.56
2017-09-18T17:24:44.501Z,13.56
2017-09-18T17:27:13.051Z,13.65
2017-09-18T17:29:41.159Z,13.68
2017-09-18T17:32:09.476Z,13.66
2017-09-18T17:34:37.852Z,13.69
2017-09-18T17:37:05.476Z,13.64
2017-09-18T17:39:34.113Z,13.63
2017-09-18T17:42:02.545Z,13.68
2017-09-18T17:44:30.188Z,13.69
2017-09-18T17:46:58.814Z,13.79
2017-09-18T17:49:26.763Z,13.89
2017-09-18T17:51:54.800Z,13.99
2017-09-18T17:54:22.680Z,14.09
2017-09-18T17:56:50.299Z,14.13
2017-09-18T17:59:18.054Z,14.05
2017-09-18T18:01:45.711Z,13.98
2017-09-18T18:04:13.411Z,13.96
2017-09-18T18:06:41.799Z,13.90
2017-09-18T18:09:09.464Z,13.93
2017-09-18T18:11:37.821Z,13.93
2017-09-18T18:14:05.940Z,13.84
2017-09-18T18:16:33.595Z,13.81
2017-09-18T18:19:01.268Z,13.80
2017-09-18T18:21:28.961Z,13.76
2017-09-18T18:23:57.709Z,13.70
2017-09-18T18:26:25.467Z,13.72
2017-09-18T18:28:53.620Z,13.77
2017-09-18T18:31:21.265Z,13.84
2017-09-18T18:33:49.748Z,13.91
2017-09-18T18:36:17.395Z,13.91
2017-09-18T18:38:46.583Z,13.93
2017-09-18T18:41:14.280Z,13.87
2017-09-18T18:43:42.011Z,13.77
2017-09-18T18:46:09.897Z,13.75
2017-09-18T18:48:38.399Z,13.76
2017-09-18T18:51:06.540Z,13.71
2017-09-18T18:53:34.195Z,13.71
2017-09-18T18:56:01.865Z,13.64
2017-09-18T18:58:30.676Z,13.69
2017-09-18T19:00:58.366Z,13.76
2017-09-18T19:03:27.371Z,13.80
2017-09-18T19:05:55.909Z,13.83
2017-09-18T19:08:23.585Z,13.89
2017-09-18T19:10:52.233Z,13.87
2017-09-18T19:13:20.797Z,13.89
2017-09-18T19:15:48.549Z,13.90
2017-09-18T19:18:17.336Z,13.91
2017-09-18T19:20:45.315Z,13.82
2017-09-18T19:23:12.975Z,13.68
2017-09-18T19:25:41.241Z,13.70
2017-09-18T19:28:09.622Z,13.58
2017-09-18T19:30:38.624Z,13.60
2017-09-18T19:33:07.072Z,13.60
2017-09-18T19:35:34.907Z,13.65
2017-09-18T19:38:02.720Z,13.68
2017-09-18T19:40:30.449Z,13.68
2017-09-18T19:42:58.348Z,13.70
2017-09-18T19:45:29.038Z,13.63
2017-09-18T19:47:56.764Z,13.60
2017-09-18T19:50:24.449Z,13.51
2017-09-18T19:52:52.713Z,13.51
2017-09-18T19:55:20.361Z,13.54
2017-09-18T19:57:47.980Z,13.59
2017-09-18T20:00:15.685Z,13.63
2017-09-18T20:02:43.888Z,13.69
2017-09-18T20:05:11.617Z,13.70
2017-09-18T20:07:40.173Z,13.71
2017-09-18T20:10:07.840Z,13.72
2017-09-18T20:12:36.111Z,13.69
2017-09-18T20:15:03.772Z,13.70
2017-09-18T20:17:31.404Z,13.70
2017-09-18T20:19:59.183Z,13.72
2017-09-18T20:22:26.848Z,13.75
2017-09-18T20:24:54.600Z,13.71
2017-09-18T20:27:23.232Z,13.75
2017-09-18T20:29:51.606Z,13.75
2017-09-18T20:32:19.539Z,13.70
2017-09-18T20:34:48.043Z,13.64
2017-09-18T20:37:16.241Z,13.66
2017-09-18T20:39:43.906Z,13.68
2017-09-18T20:42:11.546Z,13.65
2017-09-18T20:44:39.229Z,13.61
2017-09-18T20:47:06.962Z,13.65
2017-09-18T20:49:34.665Z,13.67
2017-09-18T20:52:02.306Z,13.65
2017-09-18T20:54:29.978Z,13.65
2017-09-18T20:56:57.582Z,13.61
2017-09-18T20:59:25.249Z,13.59
2017-09-18T21:01:52.855Z,13.57
2017-09-18T21:04:20.689Z,13.64
2017-09-18T21:06:48.493Z,13.67
2017-09-18T21:09:16.158Z,13.69
2017-09-18T21:11:43.826Z,13.60
2017-09-18T21:14:11.723Z,13.59
2017-09-18T21:16:39.388Z,13.60
2017-09-18T21:19:07.211Z,13.58
2017-09-18T21:21:36.540Z,13.63
2017-09-18T21:24:04.305Z,13.65
2017-09-18T21:26:32.840Z,13.66
2017-09-18T21:29:00.516Z,13.66
2017-09-18T21:31:28.330Z,13.69
2017-09-18T21:33:55.963Z,13.66
2017-09-18T21:36:23.610Z,13.58
2017-09-18T21:38:51.241Z,13.57
2017-09-18T21:41:18.993Z,13.53
2017-09-18T21:43:46.580Z,13.49
2017-09-18T21:46:14.214Z,13.54
2017-09-18T21:48:41.839Z,13.56
2017-09-18T21:51:09.526Z,13.60
2017-09-18T21:53:37.188Z,13.62
2017-09-18T21:56:04.888Z,13.56
2017-09-18T21:58:32.492Z,13.56
2017-09-18T22:01:00.193Z,13.51
2017-09-18T22:03:27.838Z,13.52
2017-09-18T22:05:55.522Z,13.53
2017-09-18T22:08:23.142Z,13.50
2017-09-18T22:10:50.762Z,13.46
2017-09-18T22:13:18.375Z,13.46
2017-09-18T22:15:46.058Z,13.41
2017-09-18T22:18:13.651Z,13.39
2017-09-18T22:20:41.270Z,13.39
2017-09-18T22:23:08.885Z,13.41
2017-09-18T22:25:36.534Z,13.44
2017-09-18T22:28:04.135Z,13.46
2017-09-18T22:30:31.783Z,13.47
2017-09-18T22:32:59.390Z,13.46
2017-09-18T22:35:27.023Z,13.48
2017-09-18T22:37:54.640Z,13.49
2017-09-18T22:40:22.255Z,13.47
2017-09-18T22:42:49.862Z,13.46
2017-09-18T22:45:17.491Z,13.44
2017-09-18T22:47:45.102Z,13.43
2017-09-18T22:50:12.717Z,13.39
2017-09-18T22:52:40.339Z,13.40
2017-09-18T22:55:07.968Z,13.41
2017-09-18T22:57:35.586Z,13.40
2017-09-18T23:00:03.213Z,13.39
2017-09-18T23:02:30.810Z,13.39
2017-09-18T23:04:58.500Z,13.44
2017-09-18T23:07:26.095Z,13.43
2017-09-18T23:09:53.719Z,13.42
2017-09-18T23:12:21.352Z,13.32
2017-09-18T23:14:48.980Z,13.34
2017-09-18T23:17:16.576Z,13.34
2017-09-18T23:19:44.204Z,13.32
2017-09-18T23:22:11.802Z,13.32
2017-09-18T23:24:39.447Z,13.37
2017-09-18T23:27:07.068Z,13.40
2017-09-18T23:29:34.707Z,13.38
2017-09-18T23:32:02.314Z,13.42
2017-09-18T23:34:29.942Z,13.42
2017-09-18T23:36:57.544Z,13.37
2017-09-18T23:39:25.227Z,13.42
2017-09-18T23:41:52.830Z,13.40
2017-09-18T23:44:20.428Z,13.39
2017-09-18T23:46:48.059Z,13.41
2017-09-18T23:49:15.967Z,13.33
2017-09-18T23:51:43.591Z,13.29
2017-09-18T23:54:11.208Z,13.28
2017-09-18T23:56:38.868Z,13.26
2017-09-18T23:59:06.463Z,13.29
